createdAt,value
2022-09-09T00:01:26.236Z,14.56
2022-09-09T00:04:01.417Z,14.57
2022-09-09T00:06:32.481Z,14.55
2022-09-09T00:09:08.870Z,14.56
2022-09-09T00:11:43.294Z,14.57
2022-09-09T00:14:20.310Z,14.58
2022-09-09T00:16:55.260Z,14.54
2022-09-09T00:19:28.267Z,14.56
2022-09-09T00:22:07.247Z,14.56
2022-09-09T00:24:43.671Z,14.57
2022-09-09T00:27:20.982Z,14.56
2022-09-09T00:29:55.425Z,14.57
2022-09-09T00:32:24.159Z,14.59
2022-09-09T00:34:54.386Z,14.61
2022-09-09T00:37:26.213Z,14.60
2022-09-09T00:39:59.293Z,14.61
2022-09-09T00:42:34.063Z,14.64
2022-09-09T00:45:13.106Z,14.64
2022-09-09T00:47:48.198Z,14.65
2022-09-09T00:50:37.783Z,14.67
2022-09-09T00:53:22.363Z,14.67
2022-09-09T00:56:00.111Z,14.69
2022-09-09T00:58:28.562Z,14.67
2022-09-09T01:01:04.231Z,14.65
2022-09-09T01:03:37.070Z,14.66
2022-09-09T01:06:18.182Z,14.64
2022-09-09T01:09:13.627Z,14.63
2022-09-09T01:11:54.778Z,14.64
2022-09-09T01:14:35.301Z,14.62
2022-09-09T01:17:12.961Z,14.65
2022-09-09T01:19:52.470Z,14.68
2022-09-09T01:22:28.149Z,14.66
2022-09-09T01:25:22.161Z,14.67
2022-09-09T01:27:53.260Z,14.70
2022-09-09T01:30:21.277Z,14.72
2022-09-09T01:32:51.286Z,14.75
2022-09-09T01:35:39.491Z,14.78
2022-09-09T01:38:07.753Z,14.79
2022-09-09T01:40:35.505Z,14.80
2022-09-09T01:43:04.842Z,14.81
2022-09-09T01:45:33.071Z,14.80
2022-09-09T01:48:01.566Z,14.84
2022-09-09T01:50:29.145Z,14.84
2022-09-09T01:53:00.336Z,14.87
2022-09-09T01:55:32.554Z,14.90
2022-09-09T01:58:16.981Z,14.90
2022-09-09T02:00:53.345Z,14.90
2022-09-09T02:03:26.614Z,14.89
2022-09-09T02:06:02.779Z,14.89
2022-09-09T02:08:39.818Z,14.89
2022-09-09T02:11:13.107Z,14.92
2022-09-09T02:13:43.479Z,14.90
2022-09-09T02:16:15.546Z,14.90
2022-09-09T02:18:48.927Z,14.91
2022-09-09T02:21:18.385Z,14.91
2022-09-09T02:23:48.795Z,14.87
2022-09-09T02:26:21.145Z,14.82
2022-09-09T02:28:51.644Z,14.80
2022-09-09T02:31:21.925Z,14.78
2022-09-09T02:33:54.751Z,14.75
2022-09-09T02:36:26.102Z,14.77
2022-09-09T02:38:54.876Z,14.75
2022-09-09T02:41:26.093Z,14.75
2022-09-09T02:43:54.949Z,14.72
2022-09-09T02:46:37.901Z,14.73
2022-09-09T02:49:11.511Z,14.73
2022-09-09T02:51:47.286Z,14.72
2022-09-09T02:54:26.057Z,14.72
2022-09-09T02:56:55.610Z,14.72
2022-09-09T02:59:27.025Z,14.74
2022-09-09T03:01:55.079Z,14.76
2022-09-09T03:04:22.686Z,14.77
2022-09-09T03:06:50.298Z,14.78
2022-09-09T03:09:18.029Z,14.76
2022-09-09T03:11:45.921Z,14.78
2022-09-09T03:14:13.786Z,14.77
2022-09-09T03:16:43.913Z,14.78
2022-09-09T03:19:11.485Z,14.77
2022-09-09T03:21:39.502Z,14.76
2022-09-09T03:24:07.528Z,14.78
2022-09-09T03:26:35.445Z,14.78
2022-09-09T03:29:03.030Z,14.75
2022-09-09T03:31:31.157Z,14.75
2022-09-09T03:34:00.579Z,14.75
2022-09-09T03:36:29.060Z,14.74
2022-09-09T03:38:57.089Z,14.73
2022-09-09T03:41:25.666Z,14.73
2022-09-09T03:43:53.534Z,14.72
2022-09-09T03:46:21.347Z,14.70
2022-09-09T03:48:48.950Z,14.70
2022-09-09T03:51:17.981Z,14.68
2022-09-09T03:53:46.013Z,14.66
2022-09-09T03:56:13.554Z,14.65
2022-09-09T03:58:41.862Z,14.66
2022-09-09T04:01:14.185Z,14.66
2022-09-09T04:03:43.312Z,14.66
2022-09-09T04:06:14.206Z,14.65
2022-09-09T04:08:43.234Z,14.66
2022-09-09T04:11:11.078Z,14.65
2022-09-09T04:13:40.732Z,14.64
2022-09-09T04:16:09.397Z,14.65
2022-09-09T04:18:37.038Z,14.62
2022-09-09T04:21:06.965Z,14.58
2022-09-09T04:23:35.744Z,14.56
2022-09-09T04:26:05.727Z,14.55
2022-09-09T04:28:36.397Z,14.54
2022-09-09T04:31:10.125Z,14.55
2022-09-09T04:33:40.399Z,14.54
2022-09-09T04:36:08.745Z,14.52
2022-09-09T04:38:36.361Z,14.48
2022-09-09T04:41:05.773Z,14.48
2022-09-09T04:43:33.565Z,14.49
2022-09-09T04:46:01.244Z,14.50
2022-09-09T04:48:28.882Z,14.51
2022-09-09T04:50:58.221Z,14.47
2022-09-09T04:53:26.286Z,14.47
2022-09-09T04:55:54.165Z,14.49
2022-09-09T04:58:24.561Z,14.47
2022-09-09T05:00:52.881Z,14.47
2022-09-09T05:03:20.526Z,14.49
2022-09-09T05:05:48.135Z,14.49
2022-09-09T05:08:15.934Z,14.42
2022-09-09T05:10:43.802Z,14.39
2022-09-09T05:13:12.184Z,14.38
2022-09-09T05:15:41.259Z,14.42
2022-09-09T05:18:09.634Z,14.43
2022-09-09T05:20:37.281Z,14.44
2022-09-09T05:23:04.816Z,14.43
2022-09-09T05:25:32.341Z,14.44
2022-09-09T05:28:00.457Z,14.42
2022-09-09T05:30:27.982Z,14.40
2022-09-09T05:32:59.005Z,14.39
2022-09-09T05:35:26.553Z,14.44
2022-09-09T05:37:54.089Z,14.46
2022-09-09T05:40:22.412Z,14.44
2022-09-09T05:42:50.351Z,14.46
2022-09-09T05:45:17.961Z,14.48
2022-09-09T05:47:45.479Z,14.50
2022-09-09T05:50:16.721Z,14.50
2022-09-09T05:52:45.438Z,14.56
2022-09-09T05:55:12.989Z,14.62
2022-09-09T05:57:41.282Z,14.68
2022-09-09T06:00:10.321Z,14.77
2022-09-09T06:02:39.880Z,14.80
2022-09-09T06:05:09.337Z,14.84
2022-09-09T06:07:38.350Z,14.79
2022-09-09T06:10:06.980Z,14.84
2022-09-09T06:12:34.546Z,14.91
2022-09-09T06:15:02.186Z,14.90
2022-09-09T06:17:29.734Z,14.86
2022-09-09T06:19:57.253Z,14.87
2022-09-09T06:22:24.843Z,14.87
2022-09-09T06:24:54.530Z,14.90
2022-09-09T06:27:22.061Z,14.98
2022-09-09T06:29:49.957Z,15.03
2022-09-09T06:32:18.208Z,15.06
2022-09-09T06:34:46.340Z,15.08
2022-09-09T06:37:13.919Z,15.05
2022-09-09T06:39:41.840Z,15.10
2022-09-09T06:42:10.833Z,15.10
2022-09-09T06:44:38.382Z,15.14
2022-09-09T06:47:06.450Z,15.20
2022-09-09T06:49:34.021Z,15.28
2022-09-09T06:52:01.571Z,15.40
2022-09-09T06:54:29.471Z,15.44
2022-09-09T06:56:57.345Z,15.46
2022-09-09T06:59:26.897Z,15.48
2022-09-09T07:01:56.270Z,15.48
2022-09-09T07:04:24.037Z,15.38
2022-09-09T07:06:53.429Z,15.34
2022-09-09T07:09:21.123Z,15.38
2022-09-09T07:11:51.616Z,15.53
2022-09-09T07:14:19.225Z,15.67
2022-09-09T07:16:48.601Z,15.80
2022-09-09T07:19:16.782Z,15.97
2022-09-09T07:21:45.682Z,16.05
2022-09-09T07:24:13.733Z,16.09
2022-09-09T07:26:42.469Z,16.08
2022-09-09T07:29:10.481Z,16.18
2022-09-09T07:31:40.821Z,16.25
2022-09-09T07:34:10.334Z,16.37
2022-09-09T07:36:40.926Z,16.55
2022-09-09T07:39:10.247Z,16.68
2022-09-09T07:41:40.721Z,16.72
2022-09-09T07:44:11.695Z,16.76
2022-09-09T07:46:40.617Z,16.70
2022-09-09T07:49:10.428Z,16.78
2022-09-09T07:51:40.736Z,16.91
2022-09-09T07:54:11.182Z,17.17
2022-09-09T07:56:40.404Z,17.38
2022-09-09T07:59:09.651Z,17.61
2022-09-09T08:01:40.387Z,17.90
2022-09-09T08:04:11.622Z,18.08
2022-09-09T08:06:40.770Z,18.05
2022-09-09T08:09:09.982Z,18.10
2022-09-09T08:11:39.131Z,17.95
2022-09-09T08:14:07.052Z,17.86
2022-09-09T08:16:37.417Z,17.86
2022-09-09T08:19:06.508Z,18.33
2022-09-09T08:21:37.491Z,18.76
2022-09-09T08:24:06.871Z,19.10
2022-09-09T08:26:36.746Z,19.18
2022-09-09T08:29:06.072Z,19.28
2022-09-09T08:31:35.801Z,19.47
2022-09-09T08:34:04.454Z,19.59
2022-09-09T08:36:35.777Z,19.73
2022-09-09T08:39:04.775Z,20.18
2022-09-09T08:41:46.938Z,20.35
2022-09-09T08:44:24.141Z,20.52
2022-09-09T08:47:00.912Z,20.47
2022-09-09T08:49:50.732Z,20.70
2022-09-09T08:52:23.866Z,20.96
2022-09-09T08:54:52.923Z,20.83
2022-09-09T08:57:27.615Z,20.92
2022-09-09T08:59:58.534Z,20.81
2022-09-09T09:02:29.850Z,20.85
2022-09-09T09:05:18.161Z,20.84
2022-09-09T09:07:59.886Z,21.46
2022-09-09T09:10:42.755Z,21.64
2022-09-09T09:13:17.838Z,21.33
2022-09-09T09:15:48.894Z,21.44
2022-09-09T09:18:18.993Z,21.30
2022-09-09T09:20:55.537Z,21.05
2022-09-09T09:23:27.131Z,20.92
2022-09-09T09:25:58.550Z,20.92
2022-09-09T09:28:27.578Z,21.07
2022-09-09T09:30:59.756Z,21.15
2022-09-09T09:33:33.846Z,21.30
2022-09-09T09:36:01.568Z,21.52
2022-09-09T09:41:19.305Z,21.73
2022-09-09T09:43:55.854Z,21.76
2022-09-09T09:46:26.571Z,21.58
2022-09-09T09:49:02.142Z,21.69
2022-09-09T09:51:31.350Z,21.71
2022-09-09T09:54:23.958Z,21.61
2022-09-09T09:56:51.610Z,21.43
2022-09-09T09:59:38.652Z,21.19
2022-09-09T10:02:25.715Z,21.04
2022-09-09T10:05:03.502Z,21.41
2022-09-09T10:07:31.201Z,21.81
2022-09-09T10:10:00.407Z,22.58
2022-09-09T10:12:45.167Z,22.83
2022-09-09T10:15:31.542Z,22.67
2022-09-09T10:18:10.727Z,22.78
2022-09-09T10:20:47.774Z,22.55
2022-09-09T10:23:31.885Z,22.62
2022-09-09T10:26:15.051Z,22.52
2022-09-09T10:29:08.854Z,22.45
2022-09-09T10:31:47.694Z,22.26
2022-09-09T10:34:29.782Z,22.10
2022-09-09T10:36:59.323Z,21.99
2022-09-09T10:39:40.686Z,22.03
2022-09-09T10:42:16.165Z,22.07
2022-09-09T10:45:08.907Z,21.93
2022-09-09T10:47:50.269Z,22.00
2022-09-09T10:53:50.042Z,21.74
2022-09-09T10:56:20.770Z,21.88
2022-09-09T10:58:54.357Z,22.57
2022-09-09T11:01:26.223Z,22.70
2022-09-09T11:03:59.727Z,23.03
2022-09-09T11:06:34.046Z,23.08
2022-09-09T11:09:04.514Z,23.06
2022-09-09T11:11:37.126Z,23.73
2022-09-09T11:14:13.807Z,23.82
2022-09-09T11:16:46.059Z,24.22
2022-09-09T11:19:22.266Z,24.52
2022-09-09T11:21:52.024Z,24.47
2022-09-09T11:24:25.703Z,24.21
2022-09-09T11:26:58.050Z,24.06
2022-09-09T11:30:06.906Z,24.15
2022-09-09T11:33:04.314Z,24.27
2022-09-09T11:35:46.102Z,24.40
2022-09-09T11:38:25.953Z,24.91
2022-09-09T11:41:00.369Z,25.23
2022-09-09T11:43:36.066Z,25.36
2022-09-09T11:46:05.393Z,25.00
2022-09-09T11:48:38.556Z,25.25
2022-09-09T11:51:12.108Z,25.48
2022-09-09T11:53:53.976Z,25.48
2022-09-09T11:56:31.710Z,25.62
2022-09-09T11:59:02.987Z,25.66
2022-09-09T12:01:42.377Z,25.39
2022-09-09T12:04:37.708Z,24.92
2022-09-09T12:07:24.735Z,24.68
2022-09-09T12:09:55.011Z,24.45
2022-09-09T12:12:28.449Z,24.36
2022-09-09T12:15:21.831Z,24.72
2022-09-09T12:17:52.567Z,24.95
2022-09-09T12:20:22.967Z,24.65
2022-09-09T12:23:08.572Z,24.34
2022-09-09T12:25:49.563Z,24.06
2022-09-09T12:28:21.177Z,24.21
2022-09-09T12:31:00.759Z,24.44
2022-09-09T12:33:36.997Z,24.78
2022-09-09T12:36:07.837Z,24.91
2022-09-09T12:38:38.877Z,25.14
2022-09-09T12:41:07.051Z,25.28
2022-09-09T12:43:34.773Z,25.24
2022-09-09T12:46:06.219Z,25.38
2022-09-09T12:48:39.051Z,25.56
2022-09-09T12:51:18.658Z,25.62
2022-09-09T12:53:48.219Z,25.50
2022-09-09T12:56:21.557Z,25.26
2022-09-09T12:58:52.514Z,25.31
2022-09-09T13:01:24.164Z,25.47
2022-09-09T13:03:53.945Z,25.54
2022-09-09T13:06:28.645Z,25.54
2022-09-09T13:08:59.457Z,25.27
2022-09-09T13:11:31.242Z,24.80
2022-09-09T13:14:00.357Z,24.73
2022-09-09T13:16:32.803Z,24.49
2022-09-09T13:19:03.341Z,24.46
2022-09-09T13:21:35.839Z,24.70
2022-09-09T13:24:05.138Z,24.48
2022-09-09T13:26:32.886Z,24.21
2022-09-09T13:29:17.395Z,24.12
2022-09-09T13:31:45.038Z,23.87
2022-09-09T13:34:15.997Z,24.00
2022-09-09T13:36:43.922Z,24.10
2022-09-09T13:39:18.894Z,24.30
2022-09-09T13:41:49.426Z,24.40
2022-09-09T13:44:24.555Z,24.45
2022-09-09T13:47:06.785Z,24.56
2022-09-09T13:49:38.658Z,24.65
2022-09-09T13:52:10.914Z,24.82
2022-09-09T13:54:38.471Z,24.78
2022-09-09T13:57:06.463Z,24.94
2022-09-09T14:02:22.281Z,24.44
2022-09-09T14:04:55.950Z,24.34
2022-09-09T14:07:23.847Z,24.10
2022-09-09T14:09:52.719Z,24.02
2022-09-09T14:12:21.105Z,24.16
2022-09-09T14:14:48.779Z,24.58
2022-09-09T14:17:16.326Z,24.49
2022-09-09T14:19:45.718Z,24.45
2022-09-09T14:22:14.628Z,24.52
2022-09-09T14:24:42.792Z,24.65
2022-09-09T14:27:10.329Z,24.53
2022-09-09T14:29:37.905Z,24.38
2022-09-09T14:32:09.421Z,24.38
2022-09-09T14:34:39.741Z,24.23
2022-09-09T14:37:07.283Z,24.01
2022-09-09T14:39:36.243Z,24.12
2022-09-09T14:42:04.163Z,24.30
2022-09-09T14:46:59.503Z,23.65
2022-09-09T14:49:27.046Z,23.64
2022-09-09T14:51:54.589Z,23.59
2022-09-09T14:54:23.966Z,23.44
2022-09-09T14:56:52.894Z,23.31
2022-09-09T14:59:20.449Z,23.08
2022-09-09T15:01:48.121Z,23.07
2022-09-09T15:04:16.103Z,22.87
2022-09-09T15:06:45.463Z,22.79
2022-09-09T15:09:13.114Z,22.91
2022-09-09T15:11:40.911Z,22.93
2022-09-09T15:14:10.902Z,22.87
2022-09-09T15:16:39.787Z,22.88
2022-09-09T15:19:07.402Z,22.72
2022-09-09T15:21:37.072Z,22.58
2022-09-09T15:24:08.187Z,22.47
2022-09-09T15:26:37.192Z,22.35
2022-09-09T15:29:05.100Z,22.25
2022-09-09T15:31:34.353Z,22.08
2022-09-09T15:34:03.663Z,21.91
2022-09-09T15:36:33.192Z,21.76
2022-09-09T15:39:01.609Z,21.60
2022-09-09T15:41:30.049Z,21.36
2022-09-09T15:43:58.569Z,21.20
2022-09-09T15:46:30.501Z,21.07
2022-09-09T15:49:04.428Z,20.95
2022-09-09T15:51:47.432Z,20.88
2022-09-09T15:54:17.687Z,20.78
2022-09-09T15:56:46.350Z,20.31
2022-09-09T15:59:14.547Z,20.05
2022-09-09T16:01:43.099Z,19.68
2022-09-09T16:04:12.582Z,19.39
2022-09-09T16:06:40.711Z,19.13
2022-09-09T16:09:09.370Z,18.94
2022-09-09T16:11:38.988Z,18.83
2022-09-09T16:14:07.376Z,18.57
2022-09-09T16:16:36.086Z,18.47
2022-09-09T16:19:06.278Z,18.37
2022-09-09T16:21:38.452Z,18.30
2022-09-09T16:24:07.754Z,18.14
2022-09-09T16:26:38.115Z,17.99
2022-09-09T16:29:05.837Z,17.89
2022-09-09T16:31:34.100Z,17.81
2022-09-09T16:34:03.863Z,17.76
2022-09-09T16:36:34.965Z,17.76
2022-09-09T16:39:05.712Z,17.75
2022-09-09T16:41:33.918Z,17.78
2022-09-09T16:44:03.869Z,17.75
2022-09-09T16:46:32.890Z,17.74
2022-09-09T16:49:01.554Z,17.76
2022-09-09T16:51:32.130Z,17.78
2022-09-09T16:54:01.138Z,17.74
2022-09-09T16:56:33.003Z,17.72
2022-09-09T16:59:03.053Z,17.67
2022-09-09T17:01:33.731Z,17.66
2022-09-09T17:04:03.160Z,17.51
2022-09-09T17:06:31.776Z,17.44
2022-09-09T17:09:02.257Z,17.38
2022-09-09T17:11:31.760Z,17.34
2022-09-09T17:14:01.102Z,17.26
2022-09-09T17:16:30.828Z,17.22
2022-09-09T17:18:59.846Z,17.20
2022-09-09T17:21:29.621Z,17.12
2022-09-09T17:23:58.409Z,17.00
2022-09-09T17:26:28.549Z,16.93
2022-09-09T17:28:59.825Z,16.87
2022-09-09T17:31:28.494Z,16.80
2022-09-09T17:33:56.930Z,16.76
2022-09-09T17:36:26.095Z,16.72
2022-09-09T17:38:54.233Z,16.67
2022-09-09T17:41:23.955Z,16.61
2022-09-09T17:43:52.243Z,16.55
2022-09-09T17:46:23.816Z,16.55
2022-09-09T17:48:54.589Z,16.53
2022-09-09T17:51:25.894Z,16.51
2022-09-09T17:53:55.722Z,16.47
2022-09-09T17:56:24.907Z,16.42
2022-09-09T17:58:53.887Z,16.36
2022-09-09T18:01:24.765Z,16.31
2022-09-09T18:03:52.865Z,16.28
2022-09-09T18:06:22.237Z,16.20
2022-09-09T18:08:51.433Z,16.16
2022-09-09T18:11:20.294Z,16.14
2022-09-09T18:13:50.889Z,16.07
2022-09-09T18:16:19.251Z,16.00
2022-09-09T18:18:49.437Z,16.02
2022-09-09T18:21:18.774Z,16.01
2022-09-09T18:23:49.390Z,16.00
2022-09-09T18:26:20.021Z,15.99
2022-09-09T18:28:50.530Z,15.97
2022-09-09T18:31:19.648Z,15.96
2022-09-09T18:33:50.413Z,15.96
2022-09-09T18:36:20.918Z,15.94
2022-09-09T18:38:48.973Z,15.91
2022-09-09T18:41:17.726Z,15.90
2022-09-09T18:43:46.290Z,15.88
2022-09-09T18:46:16.116Z,15.86
2022-09-09T18:48:45.634Z,15.83
2022-09-09T18:51:17.147Z,15.80
2022-09-09T18:53:45.129Z,15.76
2022-09-09T18:56:14.302Z,15.72
2022-09-09T18:58:44.062Z,15.68
2022-09-09T19:01:13.792Z,15.64
2022-09-09T19:03:41.554Z,15.61
2022-09-09T19:06:12.374Z,15.55
2022-09-09T19:08:43.011Z,15.49
2022-09-09T19:11:12.405Z,15.47
2022-09-09T19:13:40.358Z,15.42
2022-09-09T19:16:10.170Z,15.37
2022-09-09T19:18:38.633Z,15.31
2022-09-09T19:21:13.766Z,15.27
2022-09-09T19:23:42.658Z,15.23
2022-09-09T19:26:11.064Z,15.20
2022-09-09T19:28:39.738Z,15.16
2022-09-09T19:31:09.558Z,15.13
2022-09-09T19:33:38.063Z,15.09
2022-09-09T19:36:09.262Z,15.06
2022-09-09T19:38:37.262Z,15.00
2022-09-09T19:41:08.251Z,14.95
2022-09-09T19:43:35.814Z,14.94
2022-09-09T19:46:06.580Z,14.90
2022-09-09T19:48:37.377Z,14.88
2022-09-09T19:51:05.406Z,14.86
2022-09-09T19:53:33.610Z,14.83
2022-09-09T19:56:03.494Z,14.82
2022-09-09T19:58:34.338Z,14.78
2022-09-09T20:01:10.639Z,14.76
2022-09-09T20:03:39.439Z,14.74
2022-09-09T20:06:08.349Z,14.68
2022-09-09T20:08:37.996Z,14.65
2022-09-09T20:11:06.781Z,14.62
2022-09-09T20:13:38.813Z,14.58
2022-09-09T20:16:08.511Z,14.55
2022-09-09T20:18:39.297Z,14.53
2022-09-09T20:21:09.554Z,14.48
2022-09-09T20:23:38.295Z,14.43
2022-09-09T20:26:08.426Z,14.39
2022-09-09T20:28:39.362Z,14.39
2022-09-09T20:31:08.315Z,14.34
2022-09-09T20:33:36.799Z,14.32
2022-09-09T20:36:11.425Z,14.31
2022-09-09T20:38:42.783Z,14.30
2022-09-09T20:41:14.277Z,14.29
2022-09-09T20:43:47.638Z,14.26
2022-09-09T20:46:15.345Z,14.25
2022-09-09T20:48:43.154Z,14.23
2022-09-09T20:51:11.462Z,14.20
2022-09-09T20:53:39.370Z,14.16
2022-09-09T20:56:08.116Z,14.13
2022-09-09T20:58:36.980Z,14.09
2022-09-09T21:01:07.452Z,14.06
2022-09-09T21:03:37.886Z,14.03
2022-09-09T21:06:06.849Z,14.01
2022-09-09T21:08:36.050Z,13.99
2022-09-09T21:11:04.287Z,14.00
2022-09-09T21:13:33.238Z,14.00
2022-09-09T21:16:01.888Z,13.99
2022-09-09T21:18:30.897Z,13.95
2022-09-09T21:20:58.502Z,13.92
2022-09-09T21:23:26.163Z,13.87
2022-09-09T21:25:54.014Z,13.81
2022-09-09T21:28:22.273Z,13.78
2022-09-09T21:30:51.795Z,13.77
2022-09-09T21:33:22.260Z,13.75
2022-09-09T21:35:51.629Z,13.72
2022-09-09T21:38:25.068Z,13.68
2022-09-09T21:40:53.691Z,13.65
2022-09-09T21:43:23.494Z,13.61
2022-09-09T21:45:51.531Z,13.62
2022-09-09T21:48:19.681Z,13.62
2022-09-09T21:50:48.782Z,13.66
2022-09-09T21:53:20.282Z,13.67
2022-09-09T21:55:49.486Z,13.66
2022-09-09T21:58:18.452Z,13.63
2022-09-09T22:00:47.657Z,13.62
2022-09-09T22:03:17.091Z,13.55
2022-09-09T22:05:48.777Z,13.51
2022-09-09T22:08:21.147Z,13.49
2022-09-09T22:10:48.782Z,13.47
2022-09-09T22:13:17.877Z,13.41
2022-09-09T22:15:46.738Z,13.38
2022-09-09T22:18:15.965Z,13.38
2022-09-09T22:20:47.074Z,13.39
2022-09-09T22:23:15.014Z,13.40
2022-09-09T22:25:44.669Z,13.40
2022-09-09T22:28:12.390Z,13.40
2022-09-09T22:30:39.961Z,13.44
2022-09-09T22:33:09.599Z,13.49
2022-09-09T22:35:41.847Z,13.52
2022-09-09T22:38:10.024Z,13.52
2022-09-09T22:40:38.053Z,13.54
2022-09-09T22:43:08.069Z,13.57
2022-09-09T22:45:35.766Z,13.57
2022-09-09T22:48:04.857Z,13.60
2022-09-09T22:50:40.122Z,13.62
2022-09-09T22:53:13.069Z,13.66
2022-09-09T22:55:40.649Z,13.68
2022-09-09T22:58:10.037Z,13.67
2022-09-09T23:00:41.701Z,13.68
2022-09-09T23:03:09.281Z,13.66
2022-09-09T23:05:38.392Z,13.67
2022-09-09T23:08:06.066Z,13.68
2022-09-09T23:10:33.770Z,13.67
2022-09-09T23:13:01.699Z,13.71
2022-09-09T23:15:31.345Z,13.72
2022-09-09T23:17:59.057Z,13.74
2022-09-09T23:20:26.799Z,13.74
2022-09-09T23:22:54.958Z,13.74
2022-09-09T23:25:22.766Z,13.73
2022-09-09T23:27:50.285Z,13.70
2022-09-09T23:30:18.236Z,13.67
2022-09-09T23:32:49.914Z,13.64
2022-09-09T23:35:17.697Z,13.62
2022-09-09T23:37:45.250Z,13.58
2022-09-09T23:40:12.819Z,13.54
2022-09-09T23:42:40.522Z,13.49
2022-09-09T23:45:09.338Z,13.47
2022-09-09T23:47:36.866Z,13.44
2022-09-09T23:50:07.655Z,13.46
2022-09-09T23:52:35.946Z,13.51
2022-09-09T23:55:03.504Z,13.56
2022-09-09T23:57:31.077Z,13.59
2022-09-09T23:59:58.618Z,13.58
